createdAt,value
2019-02-23T00:02:41.755Z,13.43
2019-02-23T00:05:26.835Z,12.57
2019-02-23T00:08:11.843Z,9.40
2019-02-23T00:10:56.940Z,11.63
2019-02-23T00:13:41.799Z,10.43
2019-02-23T00:16:26.786Z,10.27
2019-02-23T00:19:11.046Z,12.50
2019-02-23T00:21:55.998Z,13.80
2019-02-23T00:24:41.074Z,17.93
2019-02-23T00:27:26.019Z,8.43
2019-02-23T00:30:11.009Z,8.90
2019-02-23T00:32:55.942Z,13.43
2019-02-23T00:35:40.984Z,14.97
2019-02-23T00:38:26.114Z,16.23
2019-02-23T00:41:11.183Z,20.83
2019-02-23T00:43:56.193Z,12.67
2019-02-23T00:46:41.226Z,15.77
2019-02-23T00:49:35.841Z,11.67
2019-02-23T00:52:10.372Z,20.43
2019-02-23T00:54:55.310Z,11.30
2019-02-23T00:57:40.135Z,19.53
2019-02-23T01:00:25.169Z,12.93
2019-02-23T01:03:10.162Z,16.10
2019-02-23T01:05:55.245Z,19.13
2019-02-23T01:08:40.257Z,13.93
2019-02-23T01:11:25.254Z,11.40
2019-02-23T01:14:10.378Z,14.73
2019-02-23T01:16:55.436Z,17.43
2019-02-23T01:19:47.700Z,15.43
2019-02-23T01:22:27.270Z,15.23
2019-02-23T01:25:12.330Z,12.23
2019-02-23T01:27:57.314Z,13.37
2019-02-23T01:30:42.290Z,13.30
2019-02-23T01:33:27.329Z,12.17
2019-02-23T01:36:12.485Z,17.37
2019-02-23T01:38:57.486Z,15.47
2019-02-23T01:41:44.221Z,17.73
2019-02-23T01:44:28.497Z,11.53
2019-02-23T01:47:13.401Z,14.63
2019-02-23T01:49:59.285Z,15.47
2019-02-23T01:52:44.466Z,18.00
2019-02-23T01:55:29.591Z,17.70
2019-02-23T01:58:14.562Z,16.03
2019-02-23T02:00:59.523Z,18.27
2019-02-23T02:03:44.397Z,21.00
2019-02-23T02:06:29.500Z,18.33
2019-02-23T02:09:14.317Z,21.33
2019-02-23T02:11:58.569Z,9.47
2019-02-23T02:14:43.538Z,17.13
2019-02-23T02:17:25.919Z,15.50
2019-02-23T02:20:11.638Z,19.20
2019-02-23T02:22:56.557Z,17.43
2019-02-23T02:25:41.437Z,19.03
2019-02-23T02:28:26.520Z,23.70
2019-02-23T02:31:11.414Z,17.43
2019-02-23T02:33:56.344Z,18.67
2019-02-23T02:36:40.483Z,17.07
2019-02-23T02:39:25.608Z,17.77
2019-02-23T02:42:10.703Z,25.23
2019-02-23T02:44:55.674Z,19.30
2019-02-23T02:47:39.927Z,13.60
2019-02-23T02:50:25.015Z,17.77
2019-02-23T02:53:09.881Z,23.73
2019-02-23T02:55:54.857Z,20.00
2019-02-23T02:58:39.944Z,18.53
2019-02-23T03:01:22.378Z,15.77
2019-02-23T03:04:14.579Z,15.13
2019-02-23T03:07:05.918Z,16.07
2019-02-23T03:09:50.124Z,16.13
2019-02-23T03:12:34.367Z,15.97
2019-02-23T03:15:19.249Z,18.93
2019-02-23T03:18:04.329Z,17.23
2019-02-23T03:20:49.401Z,22.33
2019-02-23T03:23:34.510Z,24.80
2019-02-23T03:26:19.448Z,20.70
2019-02-23T03:29:04.537Z,27.20
2019-02-23T03:31:49.538Z,30.00
2019-02-23T03:34:32.035Z,19.13
2019-02-23T03:37:16.625Z,26.17
2019-02-23T03:40:01.631Z,20.73
2019-02-23T03:42:44.139Z,15.47
2019-02-23T03:45:35.452Z,19.90
2019-02-23T03:48:19.987Z,17.40
2019-02-23T03:51:04.089Z,24.40
2019-02-23T03:53:49.074Z,20.23
2019-02-23T03:56:34.043Z,22.13
2019-02-23T03:59:19.060Z,25.87
2019-02-23T04:02:03.911Z,20.40
2019-02-23T04:04:48.751Z,32.30
2019-02-23T04:07:31.288Z,18.57
2019-02-23T04:10:22.602Z,20.00
2019-02-23T04:13:07.174Z,25.80
2019-02-23T04:15:49.591Z,19.97
2019-02-23T04:18:34.311Z,28.80
2019-02-23T04:21:19.344Z,18.40
2019-02-23T04:24:06.483Z,19.47
2019-02-23T04:26:51.669Z,17.87
2019-02-23T04:29:36.227Z,17.80
2019-02-23T04:32:21.174Z,23.67
2019-02-23T04:35:06.030Z,28.13
2019-02-23T04:37:50.905Z,21.17
2019-02-23T04:40:35.056Z,22.60
2019-02-23T04:43:19.333Z,30.20
2019-02-23T04:46:03.559Z,24.57
2019-02-23T04:48:48.642Z,29.13
2019-02-23T04:51:33.670Z,29.50
2019-02-23T04:54:18.738Z,22.10
2019-02-23T04:57:03.682Z,26.40
2019-02-23T04:59:48.610Z,30.77
2019-02-23T05:02:31.046Z,25.53
2019-02-23T05:05:15.781Z,24.23
2019-02-23T05:08:00.036Z,24.87
2019-02-23T05:10:44.253Z,25.00
2019-02-23T05:13:28.473Z,22.47
2019-02-23T05:16:13.445Z,22.40
2019-02-23T05:18:58.282Z,27.10
2019-02-23T05:21:42.450Z,25.60
2019-02-23T05:24:27.408Z,30.10
2019-02-23T05:27:12.462Z,28.33
2019-02-23T05:29:56.598Z,23.80
2019-02-23T05:32:41.614Z,28.40
2019-02-23T05:35:26.602Z,28.33
2019-02-23T05:38:11.660Z,25.63
2019-02-23T05:40:54.098Z,28.67
2019-02-23T05:43:38.700Z,29.27
2019-02-23T05:46:22.891Z,28.67
2019-02-23T05:49:08.042Z,31.90
2019-02-23T05:51:52.930Z,31.03
2019-02-23T05:54:37.992Z,27.37
2019-02-23T05:57:23.049Z,25.33
2019-02-23T06:00:07.896Z,27.97
2019-02-23T06:02:53.013Z,31.27
2019-02-23T06:05:38.043Z,26.97
2019-02-23T06:08:22.892Z,27.40
2019-02-23T06:11:07.993Z,27.60
2019-02-23T06:13:53.022Z,22.37
2019-02-23T06:16:38.033Z,27.07
2019-02-23T06:19:23.085Z,30.63
2019-02-23T06:22:08.056Z,25.10
2019-02-23T06:24:53.111Z,22.87
2019-02-23T06:27:38.228Z,27.10
2019-02-23T06:30:23.302Z,29.50
2019-02-23T06:33:08.354Z,30.10
2019-02-23T06:35:53.270Z,35.37
2019-02-23T06:38:38.210Z,31.10
2019-02-23T06:41:23.353Z,23.30
2019-02-23T06:44:07.538Z,28.67
2019-02-23T06:46:52.794Z,32.30
2019-02-23T06:49:37.672Z,24.70
2019-02-23T06:52:22.652Z,34.30
2019-02-23T06:55:07.697Z,22.60
2019-02-23T06:57:51.918Z,25.67
2019-02-23T07:00:36.063Z,31.07
2019-02-23T07:03:21.145Z,27.63
2019-02-23T07:06:06.188Z,30.40
2019-02-23T07:08:51.247Z,21.93
2019-02-23T07:11:36.442Z,21.97
2019-02-23T07:14:21.534Z,24.93
2019-02-23T07:17:06.562Z,26.50
2019-02-23T07:19:51.533Z,23.57
2019-02-23T07:22:23.989Z,28.00
2019-02-23T07:25:15.518Z,25.20
2019-02-23T07:27:47.197Z,22.43
2019-02-23T07:30:38.535Z,28.80
2019-02-23T07:33:32.444Z,25.90
2019-02-23T07:36:09.882Z,37.17
2019-02-23T07:38:52.342Z,26.00
2019-02-23T07:45:19.607Z,26.70
2019-02-23T07:48:04.337Z,31.47
2019-02-23T07:53:40.436Z,30.37
2019-02-23T07:56:24.598Z,30.43
2019-02-23T07:59:09.709Z,28.67
2019-02-23T08:01:54.509Z,28.43
2019-02-23T08:04:39.487Z,23.03
2019-02-23T08:07:24.472Z,30.13
2019-02-23T08:10:07.287Z,20.57
2019-02-23T08:13:18.310Z,24.67
2019-02-23T08:16:02.831Z,26.50
2019-02-23T08:18:47.714Z,28.00
2019-02-23T08:21:31.892Z,33.00
2019-02-23T08:24:16.917Z,27.33
2019-02-23T08:27:01.121Z,26.83
2019-02-23T08:29:46.137Z,24.40
2019-02-23T08:32:30.967Z,22.27
2019-02-23T08:35:15.138Z,26.53
2019-02-23T08:37:57.654Z,24.03
2019-02-23T08:40:46.078Z,28.80
2019-02-23T08:43:17.746Z,22.87
2019-02-23T08:46:09.088Z,25.33
2019-02-23T08:49:00.417Z,24.77
2019-02-23T08:51:45.178Z,25.73
2019-02-23T08:54:36.841Z,22.63
2019-02-23T08:57:21.440Z,30.40
2019-02-23T09:00:06.530Z,25.50
2019-02-23T09:02:51.450Z,21.53
2019-02-23T09:05:36.207Z,29.70
2019-02-23T09:08:21.389Z,23.80
2019-02-23T09:11:05.794Z,22.90
2019-02-23T09:13:50.759Z,23.10
2019-02-23T09:16:34.942Z,21.53
2019-02-23T09:19:20.020Z,25.67
2019-02-23T09:22:04.951Z,29.13
2019-02-23T09:24:50.062Z,20.83
2019-02-23T09:27:32.498Z,27.20
2019-02-23T09:30:23.822Z,20.83
2019-02-23T09:33:08.283Z,20.47
2019-02-23T09:35:53.171Z,19.83
2019-02-23T09:38:38.190Z,24.23
2019-02-23T09:41:22.936Z,24.60
2019-02-23T09:44:07.722Z,21.00
2019-02-23T09:46:52.710Z,20.17
2019-02-23T09:49:37.777Z,25.27
2019-02-23T09:52:22.653Z,22.27
2019-02-23T09:55:06.755Z,24.47
2019-02-23T09:57:51.873Z,21.77
2019-02-23T10:00:36.946Z,22.97
2019-02-23T10:03:22.024Z,23.30
2019-02-23T10:06:06.978Z,25.50
2019-02-23T10:08:51.966Z,24.57
2019-02-23T10:11:37.061Z,22.40
2019-02-23T10:14:22.163Z,24.00
2019-02-23T10:17:09.197Z,25.30
2019-02-23T10:19:51.529Z,26.67
2019-02-23T10:22:36.355Z,20.53
2019-02-23T10:25:20.534Z,24.20
2019-02-23T10:28:05.638Z,25.63
2019-02-23T10:30:50.724Z,21.57
2019-02-23T10:33:38.477Z,19.10
2019-02-23T10:36:22.637Z,26.70
2019-02-23T10:39:07.678Z,24.13
2019-02-23T10:41:51.883Z,23.33
2019-02-23T10:44:36.775Z,26.33
2019-02-23T10:47:21.862Z,23.53
2019-02-23T10:50:06.026Z,22.40
2019-02-23T10:52:51.105Z,20.23
2019-02-23T10:55:36.118Z,19.50
2019-02-23T10:58:21.153Z,21.23
2019-02-23T11:00:52.841Z,25.67
2019-02-23T11:03:44.273Z,22.03
2019-02-23T11:06:29.315Z,21.13
2019-02-23T11:12:12.487Z,20.07
2019-02-23T11:14:57.556Z,19.73
2019-02-23T11:17:42.669Z,24.77
2019-02-23T11:20:27.464Z,19.37
2019-02-23T11:23:11.833Z,18.30
2019-02-23T11:29:14.249Z,21.30
2019-02-23T11:31:59.289Z,18.27
2019-02-23T11:34:44.290Z,18.40
2019-02-23T11:37:29.151Z,17.10
2019-02-23T11:40:14.218Z,17.67
2019-02-23T11:46:02.241Z,18.93
2019-02-23T11:48:47.285Z,15.47
2019-02-23T11:51:31.553Z,21.57
2019-02-23T11:54:16.658Z,21.00
2019-02-23T11:57:01.807Z,18.93
2019-02-23T11:59:46.868Z,17.40
2019-02-23T12:02:31.134Z,17.97
2019-02-23T12:05:16.181Z,16.87
2019-02-23T12:08:00.364Z,17.20
2019-02-23T12:10:32.006Z,15.43
2019-02-23T12:13:23.351Z,16.73
2019-02-23T12:16:14.682Z,20.37
2019-02-23T12:18:59.144Z,17.23
2019-02-23T12:21:44.389Z,17.20
2019-02-23T12:24:29.242Z,15.83
2019-02-23T12:27:14.091Z,16.93
2019-02-23T12:29:58.373Z,16.73
2019-02-23T12:32:43.375Z,15.27
2019-02-23T12:35:28.447Z,17.90
2019-02-23T12:38:12.739Z,14.13
2019-02-23T12:40:57.756Z,16.13
2019-02-23T12:43:41.996Z,15.87
2019-02-23T12:46:26.073Z,13.73
2019-02-23T12:49:10.314Z,18.20
2019-02-23T12:51:56.539Z,14.37
2019-02-23T12:54:41.193Z,14.73
2019-02-23T12:57:26.255Z,16.27
2019-02-23T13:00:11.222Z,15.30
2019-02-23T13:02:56.353Z,14.13
2019-02-23T13:05:41.390Z,15.30
2019-02-23T13:08:13.029Z,16.60
2019-02-23T13:11:04.381Z,17.07
2019-02-23T13:13:49.471Z,13.13
2019-02-23T13:16:34.510Z,16.90
2019-02-23T13:19:19.537Z,17.87
2019-02-23T13:22:03.716Z,18.53
2019-02-23T13:24:48.753Z,24.03
2019-02-23T13:27:33.897Z,15.27
2019-02-23T13:30:18.100Z,15.77
2019-02-23T13:33:02.252Z,18.00
2019-02-23T13:36:13.265Z,17.37
2019-02-23T13:39:24.306Z,20.63
2019-02-23T13:42:08.731Z,19.07
2019-02-23T13:44:52.861Z,16.60
2019-02-23T13:47:37.942Z,19.73
2019-02-23T13:50:22.885Z,14.40
2019-02-23T13:53:07.001Z,16.70
2019-02-23T13:55:51.186Z,19.97
2019-02-23T13:58:36.192Z,13.03
2019-02-23T14:01:21.225Z,18.37
2019-02-23T14:04:25.450Z,17.77
2019-02-23T14:07:10.339Z,14.77
2019-02-23T14:09:54.548Z,17.17
2019-02-23T14:12:38.802Z,20.50
2019-02-23T14:15:23.890Z,19.50
2019-02-23T14:18:31.886Z,17.90
2019-02-23T14:21:42.910Z,13.80
2019-02-23T14:24:27.471Z,19.30
2019-02-23T14:27:38.515Z,14.97
2019-02-23T14:30:43.425Z,16.63
2019-02-23T14:33:54.470Z,15.27
2019-02-23T14:36:49.256Z,18.60
2019-02-23T14:39:44.510Z,14.63
2019-02-23T14:42:28.859Z,15.47
2019-02-23T14:45:14.024Z,16.27
2019-02-23T14:47:58.969Z,19.53
2019-02-23T14:51:09.985Z,13.50
2019-02-23T14:53:54.238Z,14.57
2019-02-23T14:56:58.554Z,18.23
2019-02-23T14:59:43.494Z,18.80
2019-02-23T15:02:54.503Z,14.87
2019-02-23T15:05:49.185Z,14.93
2019-02-23T15:08:34.223Z,18.93
2019-02-23T15:11:40.979Z,13.80
2019-02-23T15:14:25.478Z,15.93
2019-02-23T15:17:10.557Z,12.53
2019-02-23T15:19:54.778Z,19.30
2019-02-23T15:22:39.010Z,20.20
2019-02-23T15:25:23.202Z,16.53
2019-02-23T15:28:07.448Z,19.50
2019-02-23T15:31:18.659Z,23.13
2019-02-23T15:37:06.843Z,21.90
2019-02-23T15:39:51.750Z,18.90
2019-02-23T15:42:36.712Z,20.77
2019-02-23T15:45:21.814Z,25.03
2019-02-23T15:48:08.737Z,19.07
2019-02-23T15:51:00.452Z,20.97
2019-02-23T15:53:32.244Z,21.90
2019-02-23T15:56:23.650Z,16.83
2019-02-23T15:59:08.130Z,16.70
2019-02-23T16:01:53.237Z,19.37
2019-02-23T16:04:38.333Z,17.43
2019-02-23T16:07:22.447Z,19.67
2019-02-23T16:10:06.633Z,25.80
2019-02-23T16:12:51.646Z,20.43
2019-02-23T16:15:36.646Z,16.33
2019-02-23T16:18:21.759Z,21.07
2019-02-23T16:21:06.874Z,19.03
2019-02-23T16:23:51.730Z,18.77
2019-02-23T16:26:36.685Z,24.50
2019-02-23T16:29:20.851Z,26.53
2019-02-23T16:32:05.042Z,21.07
2019-02-23T16:34:49.901Z,22.43
2019-02-23T16:37:35.989Z,26.37
2019-02-23T16:40:20.943Z,22.47
2019-02-23T16:43:06.074Z,19.97
2019-02-23T16:45:50.830Z,25.50
2019-02-23T16:48:35.907Z,21.43
2019-02-23T16:51:20.883Z,22.00
2019-02-23T16:54:05.904Z,25.57
2019-02-23T16:56:50.735Z,29.47
2019-02-23T16:59:35.033Z,24.90
2019-02-23T17:02:19.218Z,22.77
2019-02-23T17:08:33.154Z,24.00
2019-02-23T17:11:07.261Z,20.67
2019-02-23T17:13:58.606Z,28.30
2019-02-23T17:16:42.941Z,23.10
2019-02-23T17:19:28.026Z,17.77
2019-02-23T17:22:10.492Z,21.90
2019-02-23T17:25:04.001Z,29.50
2019-02-23T17:27:48.405Z,20.20
2019-02-23T17:30:20.161Z,20.47
2019-02-23T17:33:11.626Z,23.00
2019-02-23T17:42:06.081Z,24.43
2019-02-23T17:44:50.771Z,18.13
2019-02-23T17:47:35.233Z,23.23
2019-02-23T17:53:46.567Z,22.73
2019-02-23T17:56:31.506Z,23.70
2019-02-23T17:59:03.256Z,20.67
2019-02-23T18:01:54.569Z,23.37
2019-02-23T18:04:42.867Z,30.67
2019-02-23T18:07:27.612Z,21.87
2019-02-23T18:10:12.623Z,26.27
2019-02-23T18:12:57.523Z,25.50
2019-02-23T18:15:42.306Z,24.53
2019-02-23T18:18:27.259Z,24.60
2019-02-23T18:21:12.281Z,29.87
2019-02-23T18:23:56.482Z,20.40
2019-02-23T18:26:41.450Z,21.60
2019-02-23T18:29:26.385Z,27.40
2019-02-23T18:32:11.313Z,24.43
2019-02-23T18:34:55.503Z,23.00
2019-02-23T18:37:40.600Z,28.93
2019-02-23T18:40:24.798Z,22.90
2019-02-23T18:43:09.903Z,22.13
2019-02-23T18:45:54.788Z,22.93
2019-02-23T18:48:39.876Z,21.67
2019-02-23T18:51:24.906Z,25.37
2019-02-23T18:54:09.966Z,20.43
2019-02-23T18:56:54.126Z,25.57
2019-02-23T18:59:38.981Z,24.80
2019-02-23T19:02:24.134Z,22.57
2019-02-23T19:05:09.123Z,18.53
2019-02-23T19:07:54.153Z,17.83
2019-02-23T19:10:39.194Z,39.70
2019-02-23T19:13:24.259Z,16.83
2019-02-23T19:16:09.100Z,21.17
2019-02-23T19:18:53.289Z,21.87
2019-02-23T19:21:37.502Z,27.20
2019-02-23T19:24:21.581Z,44.27
2019-02-23T19:27:06.505Z,53.07
2019-02-23T19:29:51.755Z,92.77
2019-02-23T19:32:36.739Z,97.93
2019-02-23T19:35:21.674Z,49.60
2019-02-23T19:38:06.765Z,49.93
2019-02-23T19:40:51.721Z,23.67
2019-02-23T19:43:36.733Z,33.57
2019-02-23T19:46:21.193Z,26.33
2019-02-23T19:49:06.342Z,20.67
2019-02-23T19:51:51.245Z,22.20
2019-02-23T19:54:35.446Z,21.23
2019-02-23T19:57:20.384Z,20.80
2019-02-23T20:00:04.667Z,26.20
2019-02-23T20:02:49.674Z,23.10
2019-02-23T20:05:33.839Z,17.40
2019-02-23T20:08:18.737Z,18.77
2019-02-23T20:11:05.748Z,22.80
2019-02-23T20:13:50.496Z,20.93
2019-02-23T20:16:35.527Z,18.33
2019-02-23T20:19:20.327Z,16.47
2019-02-23T20:22:05.393Z,22.43
2019-02-23T20:24:50.379Z,23.10
2019-02-23T20:27:35.260Z,28.73
2019-02-23T20:30:20.169Z,18.97
2019-02-23T20:32:59.245Z,24.30
2019-02-23T20:35:50.702Z,23.67
2019-02-23T20:38:35.608Z,22.83
2019-02-23T20:41:19.835Z,23.83
2019-02-23T20:44:05.035Z,25.70
2019-02-23T20:46:50.098Z,24.73
2019-02-23T20:49:35.115Z,22.10
2019-02-23T20:52:17.538Z,35.33
2019-02-23T20:55:09.071Z,28.93
2019-02-23T20:57:40.751Z,36.73
2019-02-23T21:00:32.109Z,35.17
2019-02-23T21:03:17.293Z,28.67
2019-02-23T21:06:02.042Z,27.77
2019-02-23T21:08:47.166Z,27.83
2019-02-23T21:11:32.439Z,33.00
2019-02-23T21:14:16.658Z,28.90
2019-02-23T21:17:01.573Z,26.30
2019-02-23T21:19:46.517Z,25.43
2019-02-23T21:22:29.030Z,26.50
2019-02-23T21:25:20.372Z,27.57
2019-02-23T21:28:04.925Z,27.37
2019-02-23T21:30:49.962Z,25.80
2019-02-23T21:33:34.911Z,27.40
2019-02-23T21:41:59.259Z,24.50
2019-02-23T21:44:44.279Z,23.10
2019-02-23T21:50:35.574Z,24.47
2019-02-23T21:53:16.184Z,26.07
2019-02-23T22:02:32.584Z,28.43
2019-02-23T22:05:23.896Z,24.10
2019-02-23T22:07:55.554Z,26.70
2019-02-23T22:10:46.949Z,25.40
2019-02-23T22:13:32.160Z,29.30
2019-02-23T22:16:17.189Z,25.40
2019-02-23T22:19:02.059Z,32.13
2019-02-23T22:21:47.032Z,32.60
2019-02-23T22:24:31.689Z,26.53
2019-02-23T22:27:16.803Z,32.50
2019-02-23T22:30:01.773Z,29.60
2019-02-23T22:32:46.526Z,35.77
2019-02-23T22:35:31.450Z,32.13
2019-02-23T22:38:16.530Z,34.47
2019-02-23T22:41:01.574Z,37.67
2019-02-23T22:43:46.554Z,36.70
2019-02-23T22:46:30.974Z,30.77
2019-02-23T22:49:02.681Z,34.93
2019-02-23T22:51:34.300Z,32.30
2019-02-23T22:54:05.945Z,28.60
2019-02-23T22:56:37.661Z,34.20
2019-02-23T22:59:09.324Z,30.70
2019-02-23T23:01:41.057Z,27.40
2019-02-23T23:04:12.704Z,34.23
2019-02-23T23:06:44.356Z,26.33
2019-02-23T23:09:18.042Z,32.70
2019-02-23T23:11:49.798Z,40.47
2019-02-23T23:14:21.441Z,28.50
2019-02-23T23:16:53.068Z,31.70
2019-02-23T23:19:24.704Z,23.93
2019-02-23T23:21:56.354Z,27.43
2019-02-23T23:24:28.012Z,23.73
2019-02-23T23:26:59.652Z,35.83
2019-02-23T23:29:31.309Z,30.20
2019-02-23T23:32:03.034Z,28.97
2019-02-23T23:34:34.782Z,36.50
2019-02-23T23:37:06.405Z,27.30
2019-02-23T23:39:38.039Z,32.67
2019-02-23T23:42:09.664Z,30.70
2019-02-23T23:44:41.292Z,29.07
2019-02-23T23:47:12.918Z,27.00
2019-02-23T23:49:44.561Z,27.47
2019-02-23T23:52:16.180Z,31.50
2019-02-23T23:54:47.829Z,28.30
2019-02-23T23:57:19.466Z,24.03
2019-02-23T23:59:51.088Z,28.53
